createdAt,value
2018-08-14T00:00:44.418Z,20.10
2018-08-14T00:03:17.545Z,20.60
2018-08-14T00:05:48.289Z,20.60
2018-08-14T00:08:21.012Z,20.60
2018-08-14T00:10:51.818Z,20.60
2018-08-14T00:13:21.994Z,20.60
2018-08-14T00:15:52.095Z,20.50
2018-08-14T00:18:22.130Z,20.40
2018-08-14T00:20:52.022Z,20.40
2018-08-14T00:23:22.593Z,20.20
2018-08-14T00:25:52.570Z,20.20
2018-08-14T00:28:23.103Z,20.30
2018-08-14T00:30:53.422Z,20.30
2018-08-14T00:33:23.279Z,20.20
2018-08-14T00:35:53.304Z,20.00
2018-08-14T00:38:24.678Z,19.90
2018-08-14T00:40:54.704Z,19.90
2018-08-14T00:43:25.370Z,18.70
2018-08-14T00:45:59.609Z,19.90
2018-08-14T00:48:29.814Z,19.90
2018-08-14T00:50:59.773Z,20.10
2018-08-14T00:53:30.232Z,20.10
2018-08-14T00:56:00.281Z,19.50
2018-08-14T00:58:30.392Z,19.60
2018-08-14T01:01:00.412Z,19.70
2018-08-14T01:03:30.347Z,19.80
2018-08-14T01:06:00.396Z,19.80
2018-08-14T01:08:30.371Z,19.70
2018-08-14T01:11:00.280Z,19.70
2018-08-14T01:13:30.338Z,19.30
2018-08-14T01:16:00.353Z,19.20
2018-08-14T01:18:30.914Z,19.30
2018-08-14T01:21:01.162Z,18.20
2018-08-14T01:23:31.296Z,19.60
2018-08-14T01:26:01.309Z,19.70
2018-08-14T01:31:15.052Z,20.70
2018-08-14T01:33:45.377Z,19.70
2018-08-14T01:36:15.609Z,19.70
2018-08-14T01:38:45.632Z,19.70
2018-08-14T01:41:15.872Z,19.90
2018-08-14T01:43:46.048Z,21.60
2018-08-14T01:46:15.899Z,20.00
2018-08-14T01:48:45.903Z,19.90
2018-08-14T01:51:16.210Z,19.90
2018-08-14T01:53:46.310Z,19.90
2018-08-14T01:56:16.201Z,20.00
2018-08-14T01:58:46.374Z,20.10
2018-08-14T02:01:16.537Z,20.10
2018-08-14T02:03:46.608Z,20.20
2018-08-14T02:06:16.885Z,20.20
2018-08-14T02:08:46.748Z,20.60
2018-08-14T02:11:16.631Z,20.20
2018-08-14T02:13:46.884Z,20.20
2018-08-14T02:16:16.734Z,20.20
2018-08-14T02:18:46.686Z,20.20
2018-08-14T02:21:16.952Z,20.20
2018-08-14T02:23:47.078Z,20.20
2018-08-14T02:26:16.979Z,20.10
2018-08-14T02:28:47.328Z,20.10
2018-08-14T02:31:17.396Z,21.60
2018-08-14T02:33:47.634Z,20.20
2018-08-14T02:36:17.849Z,19.90
2018-08-14T02:38:47.762Z,19.90
2018-08-14T02:41:17.722Z,20.00
2018-08-14T02:43:47.660Z,19.90
2018-08-14T02:46:17.684Z,19.90
2018-08-14T02:48:47.738Z,20.70
2018-08-14T02:51:17.644Z,19.90
2018-08-14T02:53:47.891Z,19.90
2018-08-14T02:56:17.867Z,19.90
2018-08-14T02:58:48.315Z,19.90
2018-08-14T03:01:18.286Z,20.00
2018-08-14T03:03:48.145Z,20.00
2018-08-14T03:06:18.406Z,20.00
2018-08-14T03:08:48.583Z,20.00
2018-08-14T03:11:18.489Z,19.30
2018-08-14T03:13:48.552Z,19.90
2018-08-14T03:16:18.563Z,19.90
2018-08-14T03:18:48.554Z,19.90
2018-08-14T03:21:18.777Z,19.50
2018-08-14T03:23:48.782Z,19.80
2018-08-14T03:26:18.747Z,19.90
2018-08-14T03:28:48.947Z,19.70
2018-08-14T03:31:18.941Z,19.40
2018-08-14T03:33:48.884Z,19.40
2018-08-14T03:36:19.176Z,19.60
2018-08-14T03:38:49.240Z,19.60
2018-08-14T03:41:19.125Z,19.70
2018-08-14T03:43:49.365Z,19.60
2018-08-14T03:46:19.325Z,19.20
2018-08-14T03:48:49.378Z,19.10
2018-08-14T03:51:19.565Z,19.20
2018-08-14T03:53:49.638Z,19.30
2018-08-14T03:56:19.523Z,19.10
2018-08-14T03:58:49.843Z,19.30
2018-08-14T04:01:19.808Z,19.50
2018-08-14T04:03:49.880Z,19.60
2018-08-14T04:06:20.101Z,19.70
2018-08-14T04:08:50.029Z,19.30
2018-08-14T04:11:19.930Z,19.10
2018-08-14T04:13:50.121Z,19.20
2018-08-14T04:16:20.038Z,19.30
2018-08-14T04:18:50.525Z,19.50
2018-08-14T04:21:20.481Z,19.30
2018-08-14T04:23:50.542Z,19.10
2018-08-14T04:26:20.943Z,19.10
2018-08-14T04:28:50.930Z,19.20
2018-08-14T04:31:21.182Z,19.20
2018-08-14T04:33:51.464Z,19.20
2018-08-14T04:36:21.454Z,19.20
2018-08-14T04:38:51.451Z,19.00
2018-08-14T04:41:22.218Z,18.90
2018-08-14T04:43:52.101Z,19.00
2018-08-14T04:46:22.022Z,19.10
2018-08-14T04:48:52.629Z,19.10
2018-08-14T04:51:22.594Z,19.10
2018-08-14T04:53:52.538Z,19.20
2018-08-14T04:56:23.018Z,19.50
2018-08-14T04:58:52.881Z,19.40
2018-08-14T05:01:23.017Z,19.40
2018-08-14T05:03:53.692Z,19.40
2018-08-14T05:06:23.618Z,20.10
2018-08-14T05:09:06.604Z,19.50
2018-08-14T05:11:36.943Z,19.70
2018-08-14T05:14:06.952Z,19.80
2018-08-14T05:16:36.990Z,19.70
2018-08-14T05:19:06.946Z,19.90
2018-08-14T05:21:41.650Z,19.90
2018-08-14T05:24:11.750Z,20.00
2018-08-14T05:26:42.043Z,20.00
2018-08-14T05:29:14.400Z,19.90
2018-08-14T05:31:44.513Z,19.70
2018-08-14T05:34:15.150Z,19.60
2018-08-14T05:36:45.257Z,19.60
2018-08-14T05:39:15.222Z,19.80
2018-08-14T05:41:45.709Z,19.90
2018-08-14T05:44:24.264Z,19.70
2018-08-14T05:46:54.253Z,19.80
2018-08-14T05:49:24.181Z,19.90
2018-08-14T05:51:54.104Z,20.50
2018-08-14T05:54:24.620Z,21.60
2018-08-14T05:56:54.591Z,20.30
2018-08-14T05:59:24.799Z,20.60
2018-08-14T06:02:00.957Z,20.70
2018-08-14T06:04:36.891Z,20.80
2018-08-14T06:07:09.603Z,21.00
2018-08-14T06:09:42.768Z,21.20
2018-08-14T06:12:14.975Z,21.20
2018-08-14T06:14:48.876Z,21.30
2018-08-14T06:17:21.234Z,21.30
2018-08-14T06:19:53.568Z,20.40
2018-08-14T06:22:24.180Z,21.20
2018-08-14T06:24:54.412Z,20.90
2018-08-14T06:27:24.751Z,20.60
2018-08-14T06:29:55.472Z,20.60
2018-08-14T06:32:26.059Z,20.70
2018-08-14T06:34:56.365Z,20.20
2018-08-14T06:37:26.600Z,20.20
2018-08-14T06:39:56.811Z,20.50
2018-08-14T06:42:27.519Z,20.80
2018-08-14T06:44:57.761Z,20.80
2018-08-14T06:47:28.354Z,20.70
2018-08-14T06:49:59.286Z,20.80
2018-08-14T06:52:29.308Z,20.80
2018-08-14T06:54:59.346Z,21.00
2018-08-14T06:57:29.778Z,20.00
2018-08-14T07:00:00.698Z,21.00
2018-08-14T07:02:30.956Z,20.80
2018-08-14T07:05:04.008Z,20.80
2018-08-14T07:07:34.346Z,20.70
2018-08-14T07:10:05.317Z,20.80
2018-08-14T07:12:36.006Z,20.90
2018-08-14T07:15:10.119Z,20.90
2018-08-14T07:17:40.981Z,21.30
2018-08-14T07:20:21.585Z,21.50
2018-08-14T07:22:57.969Z,21.30
2018-08-14T07:25:38.832Z,22.10
2018-08-14T07:28:18.546Z,22.10
2018-08-14T07:30:48.897Z,22.20
2018-08-14T07:33:19.424Z,22.10
2018-08-14T07:35:49.714Z,22.20
2018-08-14T07:38:19.936Z,22.10
2018-08-14T07:40:51.861Z,22.20
2018-08-14T07:43:23.084Z,21.10
2018-08-14T07:45:53.450Z,22.00
2018-08-14T07:48:24.108Z,21.80
2018-08-14T07:50:54.294Z,21.60
2018-08-14T07:53:24.360Z,21.50
2018-08-14T07:55:55.224Z,21.60
2018-08-14T07:58:27.212Z,21.60
2018-08-14T08:00:57.728Z,21.10
2018-08-14T08:03:29.703Z,20.70
2018-08-14T08:06:00.314Z,20.60
2018-08-14T08:08:32.234Z,21.00
2018-08-14T08:11:03.690Z,21.10
2018-08-14T08:13:35.263Z,21.20
2018-08-14T08:16:06.217Z,21.80
2018-08-14T08:18:36.549Z,22.20
2018-08-14T08:21:06.835Z,22.50
2018-08-14T08:23:51.863Z,22.80
2018-08-14T08:26:26.678Z,22.80
2018-08-14T08:28:58.447Z,22.80
2018-08-14T08:31:29.009Z,22.60
2018-08-14T08:33:59.167Z,22.30
2018-08-14T08:36:29.761Z,21.90
2018-08-14T08:38:59.867Z,21.80
2018-08-14T08:41:30.125Z,21.70
2018-08-14T08:44:00.512Z,21.20
2018-08-14T08:46:31.480Z,21.50
2018-08-14T08:49:01.574Z,22.00
2018-08-14T08:51:31.831Z,22.80
2018-08-14T08:54:02.119Z,24.20
2018-08-14T08:56:32.697Z,23.00
2018-08-14T08:59:04.989Z,23.00
2018-08-14T09:01:35.442Z,22.90
2018-08-14T09:04:10.129Z,22.70
2018-08-14T09:06:41.054Z,22.60
2018-08-14T09:09:14.040Z,22.40
2018-08-14T09:11:44.492Z,22.70
2018-08-14T09:14:15.165Z,22.70
2018-08-14T09:16:45.744Z,22.70
2018-08-14T09:19:16.448Z,22.50
2018-08-14T09:21:46.658Z,22.30
2018-08-14T09:24:16.851Z,22.20
2018-08-14T09:26:47.954Z,22.20
2018-08-14T09:29:19.296Z,22.00
2018-08-14T09:31:51.216Z,22.30
2018-08-14T09:34:21.665Z,22.20
2018-08-14T09:36:52.150Z,22.40
2018-08-14T09:39:23.453Z,21.80
2018-08-14T09:41:56.147Z,23.00
2018-08-14T09:44:26.156Z,22.80
2018-08-14T09:46:57.539Z,22.80
2018-08-14T09:49:28.781Z,22.50
2018-08-14T09:51:59.446Z,23.00
2018-08-14T09:54:30.539Z,23.20
2018-08-14T09:57:02.389Z,23.00
2018-08-14T09:59:35.094Z,22.90
2018-08-14T10:02:12.274Z,23.30
2018-08-14T10:04:49.060Z,23.30
2018-08-14T10:07:20.096Z,23.40
2018-08-14T10:09:51.336Z,23.90
2018-08-14T10:12:21.466Z,24.00
2018-08-14T10:14:58.772Z,24.10
2018-08-14T10:17:28.903Z,24.10
2018-08-14T10:19:59.492Z,24.10
2018-08-14T10:22:31.068Z,23.80
2018-08-14T10:25:03.545Z,23.70
2018-08-14T10:27:34.901Z,24.00
2018-08-14T10:30:10.421Z,24.30
2018-08-14T10:32:41.446Z,24.40
2018-08-14T10:35:12.449Z,23.80
2018-08-14T10:37:44.208Z,23.80
2018-08-14T10:40:18.302Z,23.60
2018-08-14T10:42:48.527Z,23.50
2018-08-14T10:45:21.949Z,23.60
2018-08-14T10:47:54.505Z,23.60
2018-08-14T10:50:25.525Z,23.90
2018-08-14T10:52:56.040Z,24.30
2018-08-14T10:55:26.916Z,24.60
2018-08-14T10:57:57.892Z,25.00
2018-08-14T11:00:32.956Z,25.20
2018-08-14T11:03:04.386Z,24.80
2018-08-14T11:05:37.865Z,24.50
2018-08-14T11:08:10.110Z,24.50
2018-08-14T11:12:52.896Z,24.40
2018-08-14T11:15:23.639Z,24.50
2018-08-14T11:17:54.239Z,24.20
2018-08-14T11:20:27.701Z,24.30
2018-08-14T11:23:02.333Z,24.20
2018-08-14T11:25:34.855Z,24.20
2018-08-14T11:28:07.266Z,24.90
2018-08-14T11:30:39.327Z,24.30
2018-08-14T11:33:09.931Z,23.90
2018-08-14T11:35:45.038Z,23.90
2018-08-14T11:38:15.583Z,24.00
2018-08-14T11:43:25.363Z,24.20
2018-08-14T11:45:55.666Z,24.00
2018-08-14T11:48:25.949Z,23.90
2018-08-14T11:50:56.647Z,24.20
2018-08-14T11:53:27.094Z,24.10
2018-08-14T11:55:57.353Z,24.20
2018-08-14T11:58:27.701Z,24.70
2018-08-14T12:00:58.067Z,25.20
2018-08-14T12:03:29.382Z,25.30
2018-08-14T12:06:01.077Z,25.10
2018-08-14T12:08:38.536Z,25.20
2018-08-14T12:11:09.509Z,25.20
2018-08-14T12:13:39.638Z,24.90
2018-08-14T12:16:09.713Z,24.60
2018-08-14T12:18:40.535Z,24.50
2018-08-14T12:21:12.063Z,24.60
2018-08-14T12:23:42.925Z,24.70
2018-08-14T12:26:15.178Z,24.70
2018-08-14T12:28:45.404Z,24.80
2018-08-14T12:31:16.140Z,24.80
2018-08-14T12:33:47.439Z,24.50
2018-08-14T12:36:17.846Z,24.10
2018-08-14T12:38:48.426Z,24.70
2018-08-14T12:41:18.986Z,24.50
2018-08-14T12:43:58.176Z,24.60
2018-08-14T12:46:36.920Z,24.40
2018-08-14T12:49:07.207Z,24.40
2018-08-14T12:51:37.794Z,24.50
2018-08-14T12:54:08.383Z,24.60
2018-08-14T12:56:38.647Z,24.30
2018-08-14T12:59:10.387Z,24.30
2018-08-14T13:01:40.728Z,24.10
2018-08-14T13:04:12.307Z,24.60
2018-08-14T13:06:43.300Z,24.50
2018-08-14T13:09:13.939Z,24.90
2018-08-14T13:11:44.179Z,25.30
2018-08-14T13:14:14.973Z,24.90
2018-08-14T13:16:45.545Z,24.60
2018-08-14T13:19:16.931Z,24.60
2018-08-14T13:21:47.490Z,24.50
2018-08-14T13:24:18.192Z,24.60
2018-08-14T13:26:49.380Z,24.80
2018-08-14T13:29:20.067Z,24.80
2018-08-14T13:31:50.612Z,24.90
2018-08-14T13:34:21.589Z,24.90
2018-08-14T13:36:51.776Z,24.80
2018-08-14T13:39:21.910Z,25.50
2018-08-14T13:44:37.106Z,25.30
2018-08-14T13:47:07.584Z,25.80
2018-08-14T13:49:37.913Z,25.70
2018-08-14T13:52:08.781Z,25.80
2018-08-14T13:54:39.466Z,26.30
2018-08-14T13:57:10.209Z,26.20
2018-08-14T13:59:40.445Z,25.70
2018-08-14T14:02:11.262Z,25.60
2018-08-14T14:04:41.586Z,25.70
2018-08-14T14:07:12.969Z,25.40
2018-08-14T14:09:43.939Z,25.30
2018-08-14T14:12:14.647Z,25.40
2018-08-14T14:14:44.888Z,25.00
2018-08-14T14:17:14.942Z,26.40
2018-08-14T14:19:45.094Z,24.50
2018-08-14T14:22:15.342Z,24.10
2018-08-14T14:24:46.042Z,23.90
2018-08-14T14:27:16.377Z,23.60
2018-08-14T14:29:46.730Z,23.30
2018-08-14T14:32:17.356Z,23.10
2018-08-14T14:34:47.429Z,23.20
2018-08-14T14:37:17.625Z,23.20
2018-08-14T14:39:48.182Z,23.30
2018-08-14T14:42:18.339Z,23.20
2018-08-14T14:44:48.385Z,22.60
2018-08-14T14:47:18.781Z,22.30
2018-08-14T14:49:48.925Z,22.00
2018-08-14T14:52:19.187Z,21.80
2018-08-14T14:54:50.070Z,21.40
2018-08-14T14:57:20.417Z,21.70
2018-08-14T14:59:50.457Z,21.90
2018-08-14T15:02:21.077Z,21.80
2018-08-14T15:04:51.227Z,22.00
2018-08-14T15:07:21.484Z,22.30
2018-08-14T15:09:52.065Z,22.50
2018-08-14T15:12:22.571Z,22.50
2018-08-14T15:14:52.836Z,22.50
2018-08-14T15:17:23.523Z,22.60
2018-08-14T15:19:53.930Z,22.60
2018-08-14T15:22:24.344Z,22.50
2018-08-14T15:24:54.590Z,22.70
2018-08-14T15:27:25.003Z,22.30
2018-08-14T15:30:03.793Z,22.50
2018-08-14T15:32:34.551Z,22.60
2018-08-14T15:35:05.428Z,22.10
2018-08-14T15:37:35.792Z,22.30
2018-08-14T15:40:08.033Z,22.50
2018-08-14T15:42:39.028Z,22.50
2018-08-14T15:45:09.513Z,22.60
2018-08-14T15:47:40.206Z,22.40
2018-08-14T15:50:11.257Z,22.60
2018-08-14T15:52:41.533Z,22.60
2018-08-14T15:55:11.918Z,22.30
2018-08-14T15:57:41.979Z,22.10
2018-08-14T16:00:12.750Z,22.10
2018-08-14T16:02:43.346Z,22.00
2018-08-14T16:05:14.608Z,22.10
2018-08-14T16:07:45.276Z,22.20
2018-08-14T16:10:15.515Z,22.40
2018-08-14T16:12:45.869Z,22.50
2018-08-14T16:15:16.331Z,22.40
2018-08-14T16:17:46.460Z,22.60
2018-08-14T16:20:16.479Z,22.90
2018-08-14T16:22:46.989Z,22.50
2018-08-14T16:25:17.034Z,22.30
2018-08-14T16:27:47.579Z,22.70
2018-08-14T16:30:18.403Z,22.60
2018-08-14T16:32:48.500Z,23.10
2018-08-14T16:35:18.711Z,23.20
2018-08-14T16:37:49.256Z,22.20
2018-08-14T16:40:19.422Z,23.10
2018-08-14T16:42:50.133Z,23.00
2018-08-14T16:45:20.329Z,22.50
2018-08-14T16:47:50.326Z,23.10
2018-08-14T16:50:21.208Z,23.10
2018-08-14T16:52:51.830Z,23.00
2018-08-14T16:55:21.960Z,23.10
2018-08-14T16:57:53.784Z,22.90
2018-08-14T17:00:29.000Z,23.00
2018-08-14T17:03:00.764Z,23.00
2018-08-14T17:05:31.320Z,22.70
2018-08-14T17:08:01.823Z,22.70
2018-08-14T17:10:32.112Z,22.80
2018-08-14T17:13:03.327Z,23.10
2018-08-14T17:15:33.537Z,23.30
2018-08-14T17:18:05.074Z,23.40
2018-08-14T17:20:33.462Z,23.60
2018-08-14T17:23:05.490Z,23.50
2018-08-14T17:25:36.128Z,23.70
2018-08-14T17:28:06.925Z,22.80
2018-08-14T17:30:37.073Z,23.40
2018-08-14T17:33:08.063Z,23.80
2018-08-14T17:35:38.551Z,23.50
2018-08-14T17:38:10.153Z,23.40
2018-08-14T17:40:40.706Z,23.50
2018-08-14T17:43:11.257Z,23.60
2018-08-14T17:45:42.482Z,23.40
2018-08-14T17:48:13.042Z,23.40
2018-08-14T17:50:43.273Z,23.40
2018-08-14T17:53:13.439Z,23.30
2018-08-14T17:55:45.297Z,24.10
2018-08-14T17:58:15.541Z,23.20
2018-08-14T18:00:45.751Z,23.40
2018-08-14T18:03:16.895Z,23.40
2018-08-14T18:05:47.046Z,23.30
2018-08-14T18:08:17.106Z,23.40
2018-08-14T18:10:47.698Z,23.40
2018-08-14T18:13:18.859Z,23.30
2018-08-14T18:15:49.513Z,23.20
2018-08-14T18:18:21.123Z,23.00
2018-08-14T18:20:51.339Z,22.90
2018-08-14T18:23:21.715Z,23.00
2018-08-14T18:25:52.635Z,23.20
2018-08-14T18:28:23.193Z,23.10
2018-08-14T18:30:53.741Z,22.80
2018-08-14T18:33:24.111Z,22.70
2018-08-14T18:35:54.196Z,23.50
2018-08-14T18:38:24.548Z,22.60
2018-08-14T18:40:54.666Z,22.70
2018-08-14T18:43:25.062Z,22.70
2018-08-14T18:45:56.427Z,22.40
2018-08-14T18:48:26.372Z,21.80
2018-08-14T18:50:56.530Z,21.20
2018-08-14T18:53:27.021Z,21.20
2018-08-14T18:55:57.127Z,21.50
2018-08-14T18:58:27.050Z,21.80
2018-08-14T19:00:57.397Z,21.40
2018-08-14T19:03:27.406Z,22.50
2018-08-14T19:05:57.591Z,21.30
2018-08-14T19:08:28.435Z,21.30
2018-08-14T19:10:58.678Z,21.40
2018-08-14T19:13:28.898Z,21.50
2018-08-14T19:15:59.412Z,21.50
2018-08-14T19:18:29.635Z,21.50
2018-08-14T19:20:59.709Z,21.60
2018-08-14T19:23:30.264Z,21.50
2018-08-14T19:26:00.998Z,21.80
2018-08-14T19:28:31.976Z,21.90
2018-08-14T19:31:02.684Z,22.10
2018-08-14T19:33:32.999Z,22.20
2018-08-14T19:36:03.669Z,22.20
2018-08-14T19:38:34.482Z,22.20
2018-08-14T19:41:04.886Z,22.30
2018-08-14T19:43:35.030Z,22.30
2018-08-14T19:46:06.295Z,22.30
2018-08-14T19:48:36.307Z,22.20
2018-08-14T19:51:07.475Z,22.20
2018-08-14T19:53:37.793Z,22.20
2018-08-14T19:56:08.136Z,22.30
2018-08-14T19:58:38.953Z,22.30
2018-08-14T20:01:09.199Z,22.40
2018-08-14T20:03:39.492Z,22.30
2018-08-14T20:06:10.053Z,22.40
2018-08-14T20:08:40.508Z,22.10
2018-08-14T20:11:11.263Z,22.00
2018-08-14T20:13:41.487Z,22.00
2018-08-14T20:16:11.891Z,22.00
2018-08-14T20:18:43.498Z,21.60
2018-08-14T20:21:13.575Z,21.90
2018-08-14T20:23:44.190Z,22.00
2018-08-14T20:26:14.359Z,22.90
2018-08-14T20:28:44.350Z,22.00
2018-08-14T20:31:15.525Z,21.90
2018-08-14T20:33:45.972Z,21.90
2018-08-14T20:36:16.649Z,21.40
2018-08-14T20:38:47.021Z,22.00
2018-08-14T20:41:17.301Z,22.00
2018-08-14T20:43:47.590Z,22.00
2018-08-14T20:46:18.126Z,21.90
2018-08-14T20:48:49.561Z,21.80
2018-08-14T20:51:19.846Z,21.80
2018-08-14T20:53:50.120Z,21.80
2018-08-14T20:56:22.602Z,21.80
2018-08-14T20:58:53.007Z,21.80
2018-08-14T21:01:23.643Z,21.80
2018-08-14T21:03:53.780Z,21.80
2018-08-14T21:06:23.891Z,21.80
2018-08-14T21:08:54.264Z,21.60
2018-08-14T21:11:24.442Z,21.50
2018-08-14T21:13:54.577Z,20.10
2018-08-14T21:16:26.884Z,21.40
2018-08-14T21:18:58.482Z,21.30
2018-08-14T21:21:29.026Z,21.40
2018-08-14T21:23:59.250Z,21.20
2018-08-14T21:26:29.667Z,21.30
2018-08-14T21:28:59.995Z,21.20
2018-08-14T21:31:30.243Z,21.10
2018-08-14T21:34:00.771Z,21.10
2018-08-14T21:36:31.110Z,21.00
2018-08-14T21:39:01.240Z,20.90
2018-08-14T21:41:31.340Z,20.90
2018-08-14T21:44:01.423Z,20.80
2018-08-14T21:46:31.786Z,20.80
2018-08-14T21:49:02.074Z,20.70
2018-08-14T21:51:32.498Z,20.60
2018-08-14T21:54:03.018Z,20.50
2018-08-14T21:56:33.092Z,20.40
2018-08-14T21:59:03.605Z,20.40
2018-08-14T22:01:33.728Z,20.40
2018-08-14T22:04:04.158Z,20.40
2018-08-14T22:06:34.256Z,20.50
2018-08-14T22:09:05.129Z,20.50
2018-08-14T22:11:35.286Z,20.70
2018-08-14T22:14:06.200Z,20.80
2018-08-14T22:16:36.303Z,20.70
2018-08-14T22:19:06.448Z,19.30
2018-08-14T22:21:36.598Z,19.40
2018-08-14T22:24:06.662Z,20.60
2018-08-14T22:26:36.604Z,20.60
2018-08-14T22:29:06.928Z,20.50
2018-08-14T22:31:37.165Z,19.30
2018-08-14T22:34:07.395Z,20.50
2018-08-14T22:36:38.280Z,20.00
2018-08-14T22:39:10.113Z,20.50
2018-08-14T22:41:40.137Z,20.50
2018-08-14T22:44:10.541Z,20.50
2018-08-14T22:46:40.510Z,20.50
2018-08-14T22:49:10.635Z,20.40
2018-08-14T22:51:40.617Z,20.30
2018-08-14T22:54:10.722Z,20.30
2018-08-14T22:56:40.684Z,20.20
2018-08-14T22:59:10.929Z,20.10
2018-08-14T23:01:40.984Z,20.10
2018-08-14T23:04:11.118Z,20.20
2018-08-14T23:06:41.108Z,20.20
2018-08-14T23:09:12.096Z,20.20
2018-08-14T23:11:42.039Z,20.50
2018-08-14T23:14:12.620Z,20.40
2018-08-14T23:16:42.657Z,20.40
2018-08-14T23:19:12.825Z,20.30
2018-08-14T23:21:42.796Z,20.30
2018-08-14T23:24:12.837Z,20.30
2018-08-14T23:26:42.844Z,20.30
2018-08-14T23:29:13.091Z,20.30
2018-08-14T23:31:43.518Z,20.30
2018-08-14T23:34:13.534Z,20.10
2018-08-14T23:36:43.579Z,20.10
2018-08-14T23:39:14.240Z,20.20
2018-08-14T23:41:44.499Z,20.30
2018-08-14T23:44:14.839Z,20.20
2018-08-14T23:46:44.860Z,20.20
2018-08-14T23:49:15.125Z,19.90
2018-08-14T23:51:45.073Z,20.30
2018-08-14T23:54:14.993Z,20.20
2018-08-14T23:56:44.946Z,20.20
2018-08-14T23:59:15.093Z,20.20
